Aeroporto :
LOGIN :

Iscrizione | Disclaimer

   EN    FR    IT 

 










Sommario :    VFR   VFR Marginale   IFR   IFR Intensivo   IFR Molto Intensivo
Visibilità : 
Base nubi : 
>= 8 km
>= 3000ft
5 / 8 km
1000 / 3000 ft
1500m / 5 km
500 / 1000 ft
800 / 1500m
200 / 500 ft
< 800m
< 200 ft
Simboli :   Temporali  Nebbia  Neve Forte  Precipitazioni Forti  Vento > 20 kt
SIGMETs :   Varie  Temporali  Ghiacco  Turbolenza  Onda orograficha  Ceneri Vulcaniche






- Altitudine del aeroporto : 779 ft
- Codice IATA : CMF


LFLB - Chambery / Aix-Les-Bains

ULTIMO METAR :
  • 051430Z AUTO 34006KT 300V010 CAVOK 23/15 Q1012 NOSIG

METARs OBSOLETI :
  • 051400Z AUTO 35005KT 290V050 CAVOK 23/15 Q1013 NOSIG
  • 051330Z AUTO 34005KT 320V020 CAVOK 22/15 Q1013 NOSIG
  • 051300Z AUTO 36006KT 320V030 9999 SCT050 SCT060 22/15 Q1013 NOSIG
  • 051230Z AUTO 01007KT 350V050 9999 BKN044 BKN054 22/16 Q1013 NOSIG
  • 051200Z AUTO 04003KT 350V090 9999 FEW020 BKN046 BKN054 21/16 Q1014 NOSIG

TAF TAF LFLB
Valido dal 05 a 15 ore il 06 a 15 ore UTC


051400Z 0515/0615 VRB04KT 9999 SCT050
BECMG 0516/0518 20006KT
BECMG 0607/0609 35005KT



MetMap, La meteo Aeronautica in un colpo d'occhio ! - Copyright ORBIFLY Dicembre 2007 - Disclaimer

ORBIFLY MET'MAP TEAM :

Programmazione e sviluppo : Alexandra Zaïnal
Concezione : Baudouin d'Aumeries
Aiuto per la programmazione : Marc-Olivier Méhu
Supporto tecnico e logistico : Manuel Goepfert
Aiuto per la traduzione : Arnaldo La Scala

Contatto : metmap@orbifly.com




FONTI E CREDITI :

   NOAA